sensor_id;sensor_type;location;lat;lon;timestamp;temperature;humidity
65378;SHT31;51982;51.042;13.806;2023-06-26T00:00:19;22.73;78.32
65378;SHT31;51982;51.042;13.806;2023-06-26T00:02:44;22.70;78.41
65378;SHT31;51982;51.042;13.806;2023-06-26T00:05:10;22.68;78.41
65378;SHT31;51982;51.042;13.806;2023-06-26T00:07:35;22.67;78.44
65378;SHT31;51982;51.042;13.806;2023-06-26T00:10:02;22.66;78.49
65378;SHT31;51982;51.042;13.806;2023-06-26T00:12:28;22.66;78.47
65378;SHT31;51982;51.042;13.806;2023-06-26T00:14:53;22.66;78.51
65378;SHT31;51982;51.042;13.806;2023-06-26T00:17:18;22.63;78.51
65378;SHT31;51982;51.042;13.806;2023-06-26T00:19:44;22.60;78.49
65378;SHT31;51982;51.042;13.806;2023-06-26T00:22:09;22.59;78.50
65378;SHT31;51982;51.042;13.806;2023-06-26T00:24:34;22.55;78.51
65378;SHT31;51982;51.042;13.806;2023-06-26T00:26:59;22.53;78.55
65378;SHT31;51982;51.042;13.806;2023-06-26T00:29:24;22.47;78.65
65378;SHT31;51982;51.042;13.806;2023-06-26T00:31:50;22.46;78.63
65378;SHT31;51982;51.042;13.806;2023-06-26T00:34:15;22.43;78.64
65378;SHT31;51982;51.042;13.806;2023-06-26T00:36:40;22.40;78.72
65378;SHT31;51982;51.042;13.806;2023-06-26T00:39:09;22.37;78.68
65378;SHT31;51982;51.042;13.806;2023-06-26T00:41:34;22.37;78.63
65378;SHT31;51982;51.042;13.806;2023-06-26T00:43:59;22.37;78.64
65378;SHT31;51982;51.042;13.806;2023-06-26T00:46:24;22.37;78.67
65378;SHT31;51982;51.042;13.806;2023-06-26T00:48:50;22.36;78.66
65378;SHT31;51982;51.042;13.806;2023-06-26T00:51:15;22.33;78.65
65378;SHT31;51982;51.042;13.806;2023-06-26T00:53:42;22.33;78.74
65378;SHT31;51982;51.042;13.806;2023-06-26T00:56:07;22.29;78.72
65378;SHT31;51982;51.042;13.806;2023-06-26T00:58:33;22.25;78.80
65378;SHT31;51982;51.042;13.806;2023-06-26T01:00:58;22.22;78.82
65378;SHT31;51982;51.042;13.806;2023-06-26T01:03:24;22.20;78.88
65378;SHT31;51982;51.042;13.806;2023-06-26T01:05:52;22.13;78.84
65378;SHT31;51982;51.042;13.806;2023-06-26T01:08:18;22.12;78.88
65378;SHT31;51982;51.042;13.806;2023-06-26T01:10:44;22.09;78.91
65378;SHT31;51982;51.042;13.806;2023-06-26T01:13:11;22.09;78.87
65378;SHT31;51982;51.042;13.806;2023-06-26T01:15:36;22.09;78.89
65378;SHT31;51982;51.042;13.806;2023-06-26T01:18:02;22.06;78.88
65378;SHT31;51982;51.042;13.806;2023-06-26T01:20:32;22.05;78.87
65378;SHT31;51982;51.042;13.806;2023-06-26T01:23:21;22.02;79.14
65378;SHT31;51982;51.042;13.806;2023-06-26T01:26:09;21.99;79.16
65378;SHT31;51982;51.042;13.806;2023-06-26T01:28:39;21.98;78.98
65378;SHT31;51982;51.042;13.806;2023-06-26T01:31:05;21.95;78.97
65378;SHT31;51982;51.042;13.806;2023-06-26T01:33:32;21.94;79.04
65378;SHT31;51982;51.042;13.806;2023-06-26T01:35:57;21.95;79.06
65378;SHT31;51982;51.042;13.806;2023-06-26T01:38:22;21.89;79.08
65378;SHT31;51982;51.042;13.806;2023-06-26T01:40:50;21.91;79.12
65378;SHT31;51982;51.042;13.806;2023-06-26T01:43:23;21.85;79.14
65378;SHT31;51982;51.042;13.806;2023-06-26T01:45:51;21.85;79.14
65378;SHT31;51982;51.042;13.806;2023-06-26T01:48:22;21.85;79.19
65378;SHT31;51982;51.042;13.806;2023-06-26T01:50:50;21.81;79.23
65378;SHT31;51982;51.042;13.806;2023-06-26T01:53:18;21.81;79.30
65378;SHT31;51982;51.042;13.806;2023-06-26T01:55:51;21.77;79.33
65378;SHT31;51982;51.042;13.806;2023-06-26T01:58:19;21.79;79.33
65378;SHT31;51982;51.042;13.806;2023-06-26T02:00:47;21.72;79.30
65378;SHT31;51982;51.042;13.806;2023-06-26T02:03:12;21.69;79.40
65378;SHT31;51982;51.042;13.806;2023-06-26T02:05:38;21.66;79.43
65378;SHT31;51982;51.042;13.806;2023-06-26T02:08:03;21.68;79.39
65378;SHT31;51982;51.042;13.806;2023-06-26T02:10:29;21.65;79.44
65378;SHT31;51982;51.042;13.806;2023-06-26T02:12:55;21.64;79.47
65378;SHT31;51982;51.042;13.806;2023-06-26T02:15:20;21.62;79.53
65378;SHT31;51982;51.042;13.806;2023-06-26T02:17:45;21.59;79.57
65378;SHT31;51982;51.042;13.806;2023-06-26T02:20:13;21.59;79.60
65378;SHT31;51982;51.042;13.806;2023-06-26T02:22:38;21.58;79.63
65378;SHT31;51982;51.042;13.806;2023-06-26T02:25:04;21.55;79.58
65378;SHT31;51982;51.042;13.806;2023-06-26T02:27:29;21.52;79.61
65378;SHT31;51982;51.042;13.806;2023-06-26T02:29:55;21.55;79.60
65378;SHT31;51982;51.042;13.806;2023-06-26T02:32:20;21.50;79.60
65378;SHT31;51982;51.042;13.806;2023-06-26T02:34:45;21.45;79.62
65378;SHT31;51982;51.042;13.806;2023-06-26T02:37:10;21.45;79.75
65378;SHT31;51982;51.042;13.806;2023-06-26T02:39:35;21.47;79.74
65378;SHT31;51982;51.042;13.806;2023-06-26T02:42:01;21.45;79.71
65378;SHT31;51982;51.042;13.806;2023-06-26T02:44:27;21.43;79.77
65378;SHT31;51982;51.042;13.806;2023-06-26T02:46:52;21.40;79.84
65378;SHT31;51982;51.042;13.806;2023-06-26T02:49:17;21.40;79.85
65378;SHT31;51982;51.042;13.806;2023-06-26T02:51:42;21.38;79.85
65378;SHT31;51982;51.042;13.806;2023-06-26T02:54:07;21.35;79.82
65378;SHT31;51982;51.042;13.806;2023-06-26T02:56:33;21.35;79.78
65378;SHT31;51982;51.042;13.806;2023-06-26T02:58:58;21.33;79.83
65378;SHT31;51982;51.042;13.806;2023-06-26T03:01:24;21.31;79.89
65378;SHT31;51982;51.042;13.806;2023-06-26T03:03:49;21.27;79.93
65378;SHT31;51982;51.042;13.806;2023-06-26T03:06:15;21.27;79.96
65378;SHT31;51982;51.042;13.806;2023-06-26T03:08:41;21.26;80.00
65378;SHT31;51982;51.042;13.806;2023-06-26T03:11:09;21.24;79.98
65378;SHT31;51982;51.042;13.806;2023-06-26T03:13:35;21.23;79.99
65378;SHT31;51982;51.042;13.806;2023-06-26T03:16:01;21.21;79.95
65378;SHT31;51982;51.042;13.806;2023-06-26T03:18:26;21.20;80.00
65378;SHT31;51982;51.042;13.806;2023-06-26T03:20:52;21.21;79.95
65378;SHT31;51982;51.042;13.806;2023-06-26T03:23:19;21.21;80.04
65378;SHT31;51982;51.042;13.806;2023-06-26T03:25:45;21.21;80.03
65378;SHT31;51982;51.042;13.806;2023-06-26T03:28:10;21.19;80.01
65378;SHT31;51982;51.042;13.806;2023-06-26T03:30:35;21.17;80.07
65378;SHT31;51982;51.042;13.806;2023-06-26T03:33:01;21.19;80.08
65378;SHT31;51982;51.042;13.806;2023-06-26T03:35:26;21.15;80.14
65378;SHT31;51982;51.042;13.806;2023-06-26T03:37:51;21.14;80.16
65378;SHT31;51982;51.042;13.806;2023-06-26T03:40:16;21.14;80.25
65378;SHT31;51982;51.042;13.806;2023-06-26T03:42:42;21.14;80.30
65378;SHT31;51982;51.042;13.806;2023-06-26T03:45:07;21.13;80.22
65378;SHT31;51982;51.042;13.806;2023-06-26T03:47:33;21.13;80.19
65378;SHT31;51982;51.042;13.806;2023-06-26T03:49:58;21.11;80.26
65378;SHT31;51982;51.042;13.806;2023-06-26T03:52:23;21.10;80.24
65378;SHT31;51982;51.042;13.806;2023-06-26T03:54:49;21.08;80.36
65378;SHT31;51982;51.042;13.806;2023-06-26T03:57:14;21.08;80.50
65378;SHT31;51982;51.042;13.806;2023-06-26T03:59:39;21.07;80.52
65378;SHT31;51982;51.042;13.806;2023-06-26T04:02:04;21.08;80.56
65378;SHT31;51982;51.042;13.806;2023-06-26T04:04:30;21.07;80.64
65378;SHT31;51982;51.042;13.806;2023-06-26T04:06:55;21.07;80.65
65378;SHT31;51982;51.042;13.806;2023-06-26T04:09:20;21.07;80.58
65378;SHT31;51982;51.042;13.806;2023-06-26T04:11:46;21.08;80.60
65378;SHT31;51982;51.042;13.806;2023-06-26T04:14:11;21.07;80.59
65378;SHT31;51982;51.042;13.806;2023-06-26T04:16:36;21.08;80.66
65378;SHT31;51982;51.042;13.806;2023-06-26T04:19:02;21.08;80.65
65378;SHT31;51982;51.042;13.806;2023-06-26T04:21:27;21.06;80.67
65378;SHT31;51982;51.042;13.806;2023-06-26T04:23:53;21.06;80.67
65378;SHT31;51982;51.042;13.806;2023-06-26T04:26:18;21.06;80.72
65378;SHT31;51982;51.042;13.806;2023-06-26T04:28:43;21.07;80.65
65378;SHT31;51982;51.042;13.806;2023-06-26T04:31:09;21.08;80.56
65378;SHT31;51982;51.042;13.806;2023-06-26T04:33:34;21.14;80.55
65378;SHT31;51982;51.042;13.806;2023-06-26T04:36:02;21.13;80.58
65378;SHT31;51982;51.042;13.806;2023-06-26T04:38:29;21.11;80.60
65378;SHT31;51982;51.042;13.806;2023-06-26T04:40:54;21.17;80.68
65378;SHT31;51982;51.042;13.806;2023-06-26T04:43:19;21.17;80.65
65378;SHT31;51982;51.042;13.806;2023-06-26T04:45:44;21.20;80.75
65378;SHT31;51982;51.042;13.806;2023-06-26T04:48:10;21.20;80.74
65378;SHT31;51982;51.042;13.806;2023-06-26T04:50:35;21.21;80.71
65378;SHT31;51982;51.042;13.806;2023-06-26T04:53:00;21.20;80.63
65378;SHT31;51982;51.042;13.806;2023-06-26T04:55:26;21.21;80.70
65378;SHT31;51982;51.042;13.806;2023-06-26T04:57:51;21.27;80.69
65378;SHT31;51982;51.042;13.806;2023-06-26T05:00:17;21.27;80.72
65378;SHT31;51982;51.042;13.806;2023-06-26T05:02:42;21.33;80.73
65378;SHT31;51982;51.042;13.806;2023-06-26T05:05:08;21.34;80.75
65378;SHT31;51982;51.042;13.806;2023-06-26T05:07:33;21.38;80.69
65378;SHT31;51982;51.042;13.806;2023-06-26T05:09:58;21.37;80.79
65378;SHT31;51982;51.042;13.806;2023-06-26T05:12:24;21.38;80.80
65378;SHT31;51982;51.042;13.806;2023-06-26T05:14:49;21.43;80.80
65378;SHT31;51982;51.042;13.806;2023-06-26T05:17:14;21.41;80.78
65378;SHT31;51982;51.042;13.806;2023-06-26T05:19:40;21.45;80.96
65378;SHT31;51982;51.042;13.806;2023-06-26T05:22:06;21.45;80.96
65378;SHT31;51982;51.042;13.806;2023-06-26T05:24:35;21.44;81.06
65378;SHT31;51982;51.042;13.806;2023-06-26T05:27:01;21.50;81.07
65378;SHT31;51982;51.042;13.806;2023-06-26T05:29:27;21.52;81.21
65378;SHT31;51982;51.042;13.806;2023-06-26T05:31:53;21.58;81.19
65378;SHT31;51982;51.042;13.806;2023-06-26T05:34:22;21.61;81.29
65378;SHT31;51982;51.042;13.806;2023-06-26T05:36:49;21.65;81.30
65378;SHT31;51982;51.042;13.806;2023-06-26T05:39:15;21.68;81.37
65378;SHT31;51982;51.042;13.806;2023-06-26T05:41:41;21.75;81.23
65378;SHT31;51982;51.042;13.806;2023-06-26T05:44:06;21.84;81.25
65378;SHT31;51982;51.042;13.806;2023-06-26T05:46:31;21.88;81.21
65378;SHT31;51982;51.042;13.806;2023-06-26T05:48:57;21.92;81.08
65378;SHT31;51982;51.042;13.806;2023-06-26T05:51:23;21.94;81.06
65378;SHT31;51982;51.042;13.806;2023-06-26T05:53:49;21.98;81.01
65378;SHT31;51982;51.042;13.806;2023-06-26T05:56:15;22.03;80.97
65378;SHT31;51982;51.042;13.806;2023-06-26T05:58:40;22.09;80.88
65378;SHT31;51982;51.042;13.806;2023-06-26T06:01:06;22.13;80.82
65378;SHT31;51982;51.042;13.806;2023-06-26T06:03:31;22.15;80.82
65378;SHT31;51982;51.042;13.806;2023-06-26T06:05:57;22.19;80.85
65378;SHT31;51982;51.042;13.806;2023-06-26T06:08:22;22.20;80.92
65378;SHT31;51982;51.042;13.806;2023-06-26T06:10:47;22.25;80.82
65378;SHT31;51982;51.042;13.806;2023-06-26T06:13:13;22.29;80.69
65378;SHT31;51982;51.042;13.806;2023-06-26T06:15:38;22.42;80.47
65378;SHT31;51982;51.042;13.806;2023-06-26T06:18:03;22.61;80.07
65378;SHT31;51982;51.042;13.806;2023-06-26T06:20:28;22.80;79.66
65378;SHT31;51982;51.042;13.806;2023-06-26T06:22:53;22.98;79.11
65378;SHT31;51982;51.042;13.806;2023-06-26T06:25:19;23.19;78.64
65378;SHT31;51982;51.042;13.806;2023-06-26T06:27:44;23.32;78.32
65378;SHT31;51982;51.042;13.806;2023-06-26T06:30:10;23.45;78.03
65378;SHT31;51982;51.042;13.806;2023-06-26T06:32:35;23.49;77.88
65378;SHT31;51982;51.042;13.806;2023-06-26T06:35:01;23.51;77.79
65378;SHT31;51982;51.042;13.806;2023-06-26T06:37:33;23.49;77.66
65378;SHT31;51982;51.042;13.806;2023-06-26T06:39:58;23.49;77.63
65378;SHT31;51982;51.042;13.806;2023-06-26T06:42:24;23.55;77.43
65378;SHT31;51982;51.042;13.806;2023-06-26T06:44:49;23.59;77.37
65378;SHT31;51982;51.042;13.806;2023-06-26T06:47:14;23.59;77.55
65378;SHT31;51982;51.042;13.806;2023-06-26T06:49:40;23.61;77.55
65378;SHT31;51982;51.042;13.806;2023-06-26T06:52:05;23.59;77.55
65378;SHT31;51982;51.042;13.806;2023-06-26T06:54:30;23.58;77.67
65378;SHT31;51982;51.042;13.806;2023-06-26T06:56:55;23.59;77.67
65378;SHT31;51982;51.042;13.806;2023-06-26T06:59:21;23.63;77.63
65378;SHT31;51982;51.042;13.806;2023-06-26T07:01:46;23.79;77.42
65378;SHT31;51982;51.042;13.806;2023-06-26T07:04:11;23.98;77.24
65378;SHT31;51982;51.042;13.806;2023-06-26T07:06:36;24.14;76.92
65378;SHT31;51982;51.042;13.806;2023-06-26T07:09:02;24.24;76.59
65378;SHT31;51982;51.042;13.806;2023-06-26T07:11:27;24.31;76.44
65378;SHT31;51982;51.042;13.806;2023-06-26T07:13:53;24.39;76.39
65378;SHT31;51982;51.042;13.806;2023-06-26T07:16:18;24.47;76.34
65378;SHT31;51982;51.042;13.806;2023-06-26T07:18:43;24.59;76.17
65378;SHT31;51982;51.042;13.806;2023-06-26T07:21:08;24.65;76.26
65378;SHT31;51982;51.042;13.806;2023-06-26T07:23:34;24.72;76.06
65378;SHT31;51982;51.042;13.806;2023-06-26T07:25:59;24.82;76.30
65378;SHT31;51982;51.042;13.806;2023-06-26T07:28:24;24.90;75.98
65378;SHT31;51982;51.042;13.806;2023-06-26T07:30:49;24.94;76.03
65378;SHT31;51982;51.042;13.806;2023-06-26T07:33:15;24.96;75.92
65378;SHT31;51982;51.042;13.806;2023-06-26T07:35:40;24.99;76.11
65378;SHT31;51982;51.042;13.806;2023-06-26T07:38:05;25.01;75.83
65378;SHT31;51982;51.042;13.806;2023-06-26T07:40:30;25.04;75.61
65378;SHT31;51982;51.042;13.806;2023-06-26T07:42:56;25.10;75.46
65378;SHT31;51982;51.042;13.806;2023-06-26T07:45:23;25.11;75.21
65378;SHT31;51982;51.042;13.806;2023-06-26T07:47:48;25.12;75.13
65378;SHT31;51982;51.042;13.806;2023-06-26T07:50:13;25.14;74.97
65378;SHT31;51982;51.042;13.806;2023-06-26T07:52:44;25.18;74.79
65378;SHT31;51982;51.042;13.806;2023-06-26T07:55:09;25.18;75.07
65378;SHT31;51982;51.042;13.806;2023-06-26T07:57:35;25.19;75.60
65378;SHT31;51982;51.042;13.806;2023-06-26T08:00:00;25.22;75.48
65378;SHT31;51982;51.042;13.806;2023-06-26T08:02:25;25.25;75.48
65378;SHT31;51982;51.042;13.806;2023-06-26T08:04:50;25.29;75.37
65378;SHT31;51982;51.042;13.806;2023-06-26T08:07:15;25.33;75.60
65378;SHT31;51982;51.042;13.806;2023-06-26T08:09:41;25.32;75.73
65378;SHT31;51982;51.042;13.806;2023-06-26T08:12:07;25.29;75.90
65378;SHT31;51982;51.042;13.806;2023-06-26T08:14:32;25.32;75.48
65378;SHT31;51982;51.042;13.806;2023-06-26T08:16:57;25.38;75.32
65378;SHT31;51982;51.042;13.806;2023-06-26T08:19:24;25.39;75.42
65378;SHT31;51982;51.042;13.806;2023-06-26T08:21:50;25.35;75.66
65378;SHT31;51982;51.042;13.806;2023-06-26T08:24:15;25.39;75.63
65378;SHT31;51982;51.042;13.806;2023-06-26T08:26:42;25.42;75.10
65378;SHT31;51982;51.042;13.806;2023-06-26T08:29:07;25.46;73.76
65378;SHT31;51982;51.042;13.806;2023-06-26T08:31:37;25.49;73.73
65378;SHT31;51982;51.042;13.806;2023-06-26T08:34:03;25.52;73.19
65378;SHT31;51982;51.042;13.806;2023-06-26T08:36:28;25.53;73.46
65378;SHT31;51982;51.042;13.806;2023-06-26T08:38:54;25.53;73.22
65378;SHT31;51982;51.042;13.806;2023-06-26T08:41:19;25.59;72.10
65378;SHT31;51982;51.042;13.806;2023-06-26T08:43:44;25.62;71.45
65378;SHT31;51982;51.042;13.806;2023-06-26T08:46:09;25.67;70.84
65378;SHT31;51982;51.042;13.806;2023-06-26T08:48:35;25.72;70.32
65378;SHT31;51982;51.042;13.806;2023-06-26T08:51:11;25.79;69.91
65378;SHT31;51982;51.042;13.806;2023-06-26T08:53:49;25.76;69.93
65378;SHT31;51982;51.042;13.806;2023-06-26T08:56:17;25.77;70.26
65378;SHT31;51982;51.042;13.806;2023-06-26T08:58:44;25.82;69.93
65378;SHT31;51982;51.042;13.806;2023-06-26T09:01:09;25.84;69.69
65378;SHT31;51982;51.042;13.806;2023-06-26T09:03:35;25.90;70.17
65378;SHT31;51982;51.042;13.806;2023-06-26T09:06:00;25.90;70.42
65378;SHT31;51982;51.042;13.806;2023-06-26T09:08:26;25.90;70.19
65378;SHT31;51982;51.042;13.806;2023-06-26T09:10:51;25.96;70.26
65378;SHT31;51982;51.042;13.806;2023-06-26T09:13:18;25.93;70.21
65378;SHT31;51982;51.042;13.806;2023-06-26T09:15:44;26.04;69.49
65378;SHT31;51982;51.042;13.806;2023-06-26T09:18:11;26.12;69.47
65378;SHT31;51982;51.042;13.806;2023-06-26T09:20:36;26.18;69.30
65378;SHT31;51982;51.042;13.806;2023-06-26T09:23:01;26.21;69.41
65378;SHT31;51982;51.042;13.806;2023-06-26T09:25:30;26.21;69.48
65378;SHT31;51982;51.042;13.806;2023-06-26T09:27:56;26.26;69.00
65378;SHT31;51982;51.042;13.806;2023-06-26T09:30:21;26.34;68.67
65378;SHT31;51982;51.042;13.806;2023-06-26T09:32:47;26.37;68.63
65378;SHT31;51982;51.042;13.806;2023-06-26T09:35:13;26.36;69.15
65378;SHT31;51982;51.042;13.806;2023-06-26T09:37:38;26.37;69.15
65378;SHT31;51982;51.042;13.806;2023-06-26T09:40:04;26.37;68.56
65378;SHT31;51982;51.042;13.806;2023-06-26T09:42:33;26.41;68.42
65378;SHT31;51982;51.042;13.806;2023-06-26T09:44:58;26.47;68.70
65378;SHT31;51982;51.042;13.806;2023-06-26T09:47:23;26.51;69.04
65378;SHT31;51982;51.042;13.806;2023-06-26T09:49:49;26.49;69.20
65378;SHT31;51982;51.042;13.806;2023-06-26T09:52:16;26.52;69.65
65378;SHT31;51982;51.042;13.806;2023-06-26T09:54:42;26.57;68.99
65378;SHT31;51982;51.042;13.806;2023-06-26T09:57:09;26.68;68.46
65378;SHT31;51982;51.042;13.806;2023-06-26T09:59:35;26.78;68.02
65378;SHT31;51982;51.042;13.806;2023-06-26T10:02:01;26.84;68.54
65378;SHT31;51982;51.042;13.806;2023-06-26T10:04:26;26.87;67.95
65378;SHT31;51982;51.042;13.806;2023-06-26T10:06:54;26.95;67.79
65378;SHT31;51982;51.042;13.806;2023-06-26T10:09:21;26.99;67.44
65378;SHT31;51982;51.042;13.806;2023-06-26T10:11:56;26.99;67.40
65378;SHT31;51982;51.042;13.806;2023-06-26T10:14:26;26.98;67.38
65378;SHT31;51982;51.042;13.806;2023-06-26T10:16:52;27.00;67.77
65378;SHT31;51982;51.042;13.806;2023-06-26T10:19:19;27.05;67.98
65378;SHT31;51982;51.042;13.806;2023-06-26T10:21:51;27.16;68.06
65378;SHT31;51982;51.042;13.806;2023-06-26T10:24:17;27.22;68.11
65378;SHT31;51982;51.042;13.806;2023-06-26T10:26:45;27.32;68.00
65378;SHT31;51982;51.042;13.806;2023-06-26T10:29:15;27.40;66.41
65378;SHT31;51982;51.042;13.806;2023-06-26T10:31:45;27.46;65.75
65378;SHT31;51982;51.042;13.806;2023-06-26T10:34:11;27.54;65.52
65378;SHT31;51982;51.042;13.806;2023-06-26T10:36:37;27.63;64.83
65378;SHT31;51982;51.042;13.806;2023-06-26T10:39:04;27.64;64.22
65378;SHT31;51982;51.042;13.806;2023-06-26T10:41:41;27.73;62.92
65378;SHT31;51982;51.042;13.806;2023-06-26T10:44:12;27.73;63.10
65378;SHT31;51982;51.042;13.806;2023-06-26T10:46:54;27.71;63.22
65378;SHT31;51982;51.042;13.806;2023-06-26T10:49:21;27.74;63.35
65378;SHT31;51982;51.042;13.806;2023-06-26T10:51:48;27.77;63.08
65378;SHT31;51982;51.042;13.806;2023-06-26T10:54:19;27.79;62.65
65378;SHT31;51982;51.042;13.806;2023-06-26T10:56:46;27.77;62.90
65378;SHT31;51982;51.042;13.806;2023-06-26T10:59:17;27.77;63.34
65378;SHT31;51982;51.042;13.806;2023-06-26T11:01:44;27.77;63.57
65378;SHT31;51982;51.042;13.806;2023-06-26T11:04:09;27.83;63.49
65378;SHT31;51982;51.042;13.806;2023-06-26T11:06:39;27.86;63.00
65378;SHT31;51982;51.042;13.806;2023-06-26T11:14:23;27.97;62.19
65378;SHT31;51982;51.042;13.806;2023-06-26T11:16:49;28.01;62.71
65378;SHT31;51982;51.042;13.806;2023-06-26T11:19:16;28.04;62.65
65378;SHT31;51982;51.042;13.806;2023-06-26T11:21:42;28.11;62.36
65378;SHT31;51982;51.042;13.806;2023-06-26T11:24:08;28.21;61.69
65378;SHT31;51982;51.042;13.806;2023-06-26T11:26:40;28.21;60.70
65378;SHT31;51982;51.042;13.806;2023-06-26T11:29:06;28.24;61.05
65378;SHT31;51982;51.042;13.806;2023-06-26T11:31:32;28.21;61.26
65378;SHT31;51982;51.042;13.806;2023-06-26T11:34:03;28.25;61.48
65378;SHT31;51982;51.042;13.806;2023-06-26T11:36:29;28.25;61.58
65378;SHT31;51982;51.042;13.806;2023-06-26T11:38:59;28.24;61.73
65378;SHT31;51982;51.042;13.806;2023-06-26T11:41:29;28.24;62.30
65378;SHT31;51982;51.042;13.806;2023-06-26T11:43:55;28.24;62.43
65378;SHT31;51982;51.042;13.806;2023-06-26T11:46:21;28.29;62.85
65378;SHT31;51982;51.042;13.806;2023-06-26T11:48:47;28.32;62.36
65378;SHT31;51982;51.042;13.806;2023-06-26T11:51:13;28.37;61.81
65378;SHT31;51982;51.042;13.806;2023-06-26T11:53:40;28.37;61.71
65378;SHT31;51982;51.042;13.806;2023-06-26T11:56:10;28.37;61.64
65378;SHT31;51982;51.042;13.806;2023-06-26T11:58:37;28.40;61.75
65378;SHT31;51982;51.042;13.806;2023-06-26T12:01:02;28.38;61.89
65378;SHT31;51982;51.042;13.806;2023-06-26T12:03:28;28.41;62.17
65378;SHT31;51982;51.042;13.806;2023-06-26T12:05:54;28.40;62.00
65378;SHT31;51982;51.042;13.806;2023-06-26T12:08:19;28.47;61.62
65378;SHT31;51982;51.042;13.806;2023-06-26T12:10:45;28.47;61.86
65378;SHT31;51982;51.042;13.806;2023-06-26T12:13:10;28.47;61.70
65378;SHT31;51982;51.042;13.806;2023-06-26T12:15:36;28.52;61.14
65378;SHT31;51982;51.042;13.806;2023-06-26T12:18:08;28.56;60.41
65378;SHT31;51982;51.042;13.806;2023-06-26T12:20:33;28.62;60.98
65378;SHT31;51982;51.042;13.806;2023-06-26T12:22:58;28.68;60.37
65378;SHT31;51982;51.042;13.806;2023-06-26T12:25:23;28.66;60.64
65378;SHT31;51982;51.042;13.806;2023-06-26T12:27:49;28.65;61.02
65378;SHT31;51982;51.042;13.806;2023-06-26T12:30:15;28.62;60.64
65378;SHT31;51982;51.042;13.806;2023-06-26T12:32:44;28.63;60.51
65378;SHT31;51982;51.042;13.806;2023-06-26T12:35:10;28.69;61.08
65378;SHT31;51982;51.042;13.806;2023-06-26T12:37:38;28.80;60.71
65378;SHT31;51982;51.042;13.806;2023-06-26T12:40:18;28.82;60.83
65378;SHT31;51982;51.042;13.806;2023-06-26T12:42:45;28.85;61.23
65378;SHT31;51982;51.042;13.806;2023-06-26T12:45:11;28.88;60.89
65378;SHT31;51982;51.042;13.806;2023-06-26T12:47:37;28.89;60.72
65378;SHT31;51982;51.042;13.806;2023-06-26T12:50:05;28.86;60.72
65378;SHT31;51982;51.042;13.806;2023-06-26T12:52:30;28.85;60.74
65378;SHT31;51982;51.042;13.806;2023-06-26T12:54:55;28.83;60.59
65378;SHT31;51982;51.042;13.806;2023-06-26T12:57:21;28.83;60.59
65378;SHT31;51982;51.042;13.806;2023-06-26T12:59:46;28.86;60.74
65378;SHT31;51982;51.042;13.806;2023-06-26T13:02:12;28.91;60.30
65378;SHT31;51982;51.042;13.806;2023-06-26T13:04:37;29.02;61.05
65378;SHT31;51982;51.042;13.806;2023-06-26T13:07:05;29.04;61.53
65378;SHT31;51982;51.042;13.806;2023-06-26T13:09:32;29.14;61.03
65378;SHT31;51982;51.042;13.806;2023-06-26T13:11:58;29.17;60.76
65378;SHT31;51982;51.042;13.806;2023-06-26T13:14:23;29.17;60.80
65378;SHT31;51982;51.042;13.806;2023-06-26T13:16:49;29.14;60.93
65378;SHT31;51982;51.042;13.806;2023-06-26T13:19:14;29.19;61.11
65378;SHT31;51982;51.042;13.806;2023-06-26T13:21:39;29.13;61.22
65378;SHT31;51982;51.042;13.806;2023-06-26T13:24:05;29.14;61.24
65378;SHT31;51982;51.042;13.806;2023-06-26T13:26:30;29.16;61.28
65378;SHT31;51982;51.042;13.806;2023-06-26T13:28:56;29.14;61.53
65378;SHT31;51982;51.042;13.806;2023-06-26T13:31:22;29.12;62.26
65378;SHT31;51982;51.042;13.806;2023-06-26T13:33:47;29.13;61.91
65378;SHT31;51982;51.042;13.806;2023-06-26T13:36:17;29.19;62.13
65378;SHT31;51982;51.042;13.806;2023-06-26T13:38:42;29.20;62.52
65378;SHT31;51982;51.042;13.806;2023-06-26T13:41:07;29.26;61.77
65378;SHT31;51982;51.042;13.806;2023-06-26T13:43:33;29.34;60.82
65378;SHT31;51982;51.042;13.806;2023-06-26T13:45:58;29.33;60.84
65378;SHT31;51982;51.042;13.806;2023-06-26T13:48:23;29.38;59.88
65378;SHT31;51982;51.042;13.806;2023-06-26T13:50:52;29.37;60.00
65378;SHT31;51982;51.042;13.806;2023-06-26T13:53:18;29.38;59.91
65378;SHT31;51982;51.042;13.806;2023-06-26T13:55:43;29.37;60.05
65378;SHT31;51982;51.042;13.806;2023-06-26T13:58:09;29.43;59.93
65378;SHT31;51982;51.042;13.806;2023-06-26T14:00:36;29.49;59.74
65378;SHT31;51982;51.042;13.806;2023-06-26T14:03:05;29.49;59.56
65378;SHT31;51982;51.042;13.806;2023-06-26T14:05:32;29.49;59.31
65378;SHT31;51982;51.042;13.806;2023-06-26T14:07:57;29.57;59.03
65378;SHT31;51982;51.042;13.806;2023-06-26T14:10:23;29.58;58.29
65378;SHT31;51982;51.042;13.806;2023-06-26T14:12:49;29.58;58.28
65378;SHT31;51982;51.042;13.806;2023-06-26T14:15:14;29.60;58.54
65378;SHT31;51982;51.042;13.806;2023-06-26T14:17:39;29.61;58.34
65378;SHT31;51982;51.042;13.806;2023-06-26T14:20:08;29.67;57.96
65378;SHT31;51982;51.042;13.806;2023-06-26T14:22:42;29.70;58.02
65378;SHT31;51982;51.042;13.806;2023-06-26T14:25:09;29.70;57.78
65378;SHT31;51982;51.042;13.806;2023-06-26T14:27:35;29.67;57.70
65378;SHT31;51982;51.042;13.806;2023-06-26T14:30:00;29.73;57.54
65378;SHT31;51982;51.042;13.806;2023-06-26T14:32:26;29.71;57.09
65378;SHT31;51982;51.042;13.806;2023-06-26T14:34:51;29.65;57.11
65378;SHT31;51982;51.042;13.806;2023-06-26T14:37:16;29.63;57.56
65378;SHT31;51982;51.042;13.806;2023-06-26T14:39:44;29.64;57.68
65378;SHT31;51982;51.042;13.806;2023-06-26T14:42:09;29.65;57.22
65378;SHT31;51982;51.042;13.806;2023-06-26T14:44:34;29.70;56.93
65378;SHT31;51982;51.042;13.806;2023-06-26T14:47:00;29.68;57.09
65378;SHT31;51982;51.042;13.806;2023-06-26T14:49:25;29.68;57.44
65378;SHT31;51982;51.042;13.806;2023-06-26T14:51:50;29.73;57.57
65378;SHT31;51982;51.042;13.806;2023-06-26T14:54:15;29.74;57.40
65378;SHT31;51982;51.042;13.806;2023-06-26T14:56:41;29.80;57.72
65378;SHT31;51982;51.042;13.806;2023-06-26T14:59:08;29.82;57.84
65378;SHT31;51982;51.042;13.806;2023-06-26T15:01:33;29.84;57.29
65378;SHT31;51982;51.042;13.806;2023-06-26T15:03:59;29.87;57.11
65378;SHT31;51982;51.042;13.806;2023-06-26T15:06:24;29.88;58.06
65378;SHT31;51982;51.042;13.806;2023-06-26T15:08:49;29.88;57.72
65378;SHT31;51982;51.042;13.806;2023-06-26T15:11:14;29.91;57.59
65378;SHT31;51982;51.042;13.806;2023-06-26T15:13:40;29.95;57.71